Terminal Aerodrome Forecast
Issued by NWS San Angelo, TX

Home | Current Version | Previous Version | Text Only | Print | Product List | Glossary On
Versions: 1 2 3 4 5 6 7 8 9 10 11 12 13 14 15 16 17 18 19 20 21 22
078
FTUS44 KSJT 241121
TAFABI
TAF
KABI 241121Z 2412/2512 16012G20KT P6SM SCT015 BKN035
      TEMPO 2412/2415 BKN015
     FM241600 18013G20KT P6SM SCT060
     FM250100 16010KT P6SM SCT250=

USA.gov is the U.S. government's official web portal to all federal, state and local government web resources and services.